Time;durP1;ratioP1;P1;durP2;ratioP2;P2;SDS_P1;SDS_P2;PMS_P1;PMS_P2;Temp;Humidity;BMP_temperature;BMP_pressure;BME280_temperature;BME280_humidity;BME280_pressure;Samples;Min_cycle;Max_cycle;Signal;HPM_P1;HPM_P2
2022/06/28 00:02:06;;;;;;;12.32;5.70;;;;;;;;;;5054447;28;20025;-73
2022/06/28 00:04:32;;;;;;;7.70;4.97;;;;;;;;;;5054594;28;20040;-72
2022/06/28 00:06:58;;;;;;;13.40;6.05;;;;;;;;;;5054303;28;20047;-73
2022/06/28 00:09:24;;;;;;;10.85;6.28;;;;;;;;;;5054333;28;20407;-73
2022/06/28 00:11:50;;;;;;;10.35;5.80;;;;;;;;;;5054295;28;20056;-73
2022/06/28 00:17:01;;;;;;;10.25;5.88;;;;;;;;;;5054189;28;20347;-73
2022/06/28 00:19:28;;;;;;;9.60;5.40;;;;;;;;;;5053986;28;20025;-73
2022/06/28 00:21:55;;;;;;;12.73;5.28;;;;;;;;;;5054244;28;20484;-73
2022/06/28 00:24:21;;;;;;;9.25;5.65;;;;;;;;;;5054032;28;20025;-73
2022/06/28 00:26:48;;;;;;;11.70;6.30;;;;;;;;;;5054022;28;20025;-73
2022/06/28 00:29:14;;;;;;;9.10;6.05;;;;;;;;;;5053844;28;20441;-73
2022/06/28 00:31:41;;;;;;;13.80;7.70;;;;;;;;;;5053945;28;20061;-73
2022/06/28 00:34:07;;;;;;;10.48;7.13;;;;;;;;;;5053828;28;20025;-72
2022/06/28 00:36:33;;;;;;;11.20;6.70;;;;;;;;;;5053732;28;20509;-72
2022/06/28 00:38:59;;;;;;;11.63;6.35;;;;;;;;;;5053750;28;20467;-73
2022/06/28 00:41:26;;;;;;;14.40;7.13;;;;;;;;;;5053797;28;20041;-73
2022/06/28 00:43:52;;;;;;;13.38;6.55;;;;;;;;;;5053491;28;20020;-73
2022/06/28 00:46:18;;;;;;;11.63;7.05;;;;;;;;;;5053570;28;20029;-73
2022/06/28 00:48:44;;;;;;;12.45;7.45;;;;;;;;;;5053551;28;20037;-73
2022/06/28 00:51:10;;;;;;;11.48;7.30;;;;;;;;;;5053509;28;20033;-73
2022/06/28 00:53:36;;;;;;;11.95;7.53;;;;;;;;;;5053470;28;20032;-73
2022/06/28 00:56:02;;;;;;;15.00;7.90;;;;;;;;;;5053418;28;20029;-72
2022/06/28 00:58:28;;;;;;;11.85;7.68;;;;;;;;;;5053236;28;20049;-73
2022/06/28 01:00:55;;;;;;;14.90;7.30;;;;;;;;;;5053410;28;20025;-73
2022/06/28 01:03:22;;;;;;;10.82;7.00;;;;;;;;;;5053322;28;20451;-73
2022/06/28 01:05:48;;;;;;;13.48;7.35;;;;;;;;;;5053135;28;20147;-73
2022/06/28 01:08:15;;;;;;;12.63;7.32;;;;;;;;;;5053229;28;20052;-73
2022/06/28 01:10:41;;;;;;;11.52;7.38;;;;;;;;;;5052367;28;20397;-73
2022/06/28 01:13:08;;;;;;;12.15;7.40;;;;;;;;;;5052959;28;20029;-73
2022/06/28 01:15:34;;;;;;;16.08;8.15;;;;;;;;;;5035072;28;20033;-73
2022/06/28 01:18:01;;;;;;;15.90;7.97;;;;;;;;;;5033132;28;20017;-73
2022/06/28 01:20:27;;;;;;;15.90;7.55;;;;;;;;;;5033045;28;20078;-73
2022/06/28 01:22:54;;;;;;;14.05;7.78;;;;;;;;;;5033004;28;20037;-73
2022/06/28 01:25:21;;;;;;;16.75;8.07;;;;;;;;;;5033058;28;20028;-73
2022/06/28 01:27:47;;;;;;;14.68;8.07;;;;;;;;;;5032901;28;20021;-73
2022/06/28 01:30:14;;;;;;;14.00;8.77;;;;;;;;;;5032858;28;20024;-73
2022/06/28 01:32:40;;;;;;;17.33;8.63;;;;;;;;;;5032815;28;20021;-73
2022/06/28 01:35:07;;;;;;;12.27;8.52;;;;;;;;;;5032838;28;20030;-73
2022/06/28 01:37:33;;;;;;;14.98;9.05;;;;;;;;;;5032752;28;20032;-73
2022/06/28 01:39:59;;;;;;;20.98;8.80;;;;;;;;;;5031304;28;20053;-73
2022/06/28 01:42:26;;;;;;;13.57;9.15;;;;;;;;;;5032596;28;20033;-73
2022/06/28 01:44:53;;;;;;;17.13;8.35;;;;;;;;;;5038307;28;20085;-73
2022/06/28 01:47:21;;;;;;;18.00;9.77;;;;;;;;;;5052429;28;20483;-73
2022/06/28 01:49:48;;;;;;;14.50;9.27;;;;;;;;;;5052394;28;20083;-73
2022/06/28 01:52:14;;;;;;;17.50;9.70;;;;;;;;;;5052367;28;20035;-73
2022/06/28 01:54:40;;;;;;;16.55;8.90;;;;;;;;;;5052466;28;20029;-73
2022/06/28 01:57:06;;;;;;;15.50;9.45;;;;;;;;;;5052072;28;20132;-72
2022/06/28 01:59:33;;;;;;;16.05;9.85;;;;;;;;;;5052276;28;20021;-73
2022/06/28 02:02:00;;;;;;;18.20;9.57;;;;;;;;;;5052356;28;20040;-73
2022/06/28 02:04:27;;;;;;;13.40;8.82;;;;;;;;;;5052380;28;20123;-73
2022/06/28 02:06:53;;;;;;;18.52;9.63;;;;;;;;;;5052164;28;20029;-73
2022/06/28 02:09:19;;;;;;;15.05;9.93;;;;;;;;;;5052004;28;20653;-73
2022/06/28 02:11:46;;;;;;;13.43;9.38;;;;;;;;;;5052191;28;20040;-73
2022/06/28 02:14:12;;;;;;;17.33;9.80;;;;;;;;;;5051796;28;20025;-73
2022/06/28 02:16:38;;;;;;;17.88;9.80;;;;;;;;;;5052005;28;20028;-73
2022/06/28 02:19:04;;;;;;;13.95;9.30;;;;;;;;;;5051881;28;20087;-73
2022/06/28 02:21:37;;;;;;;16.90;9.45;;;;;;;;;;5051994;28;20553;-73
2022/06/28 02:24:04;;;;;;;16.35;10.20;;;;;;;;;;5051639;28;20383;-73
2022/06/28 02:26:32;;;;;;;15.30;9.00;;;;;;;;;;5052135;28;20529;-72
2022/06/28 02:28:58;;;;;;;17.15;10.25;;;;;;;;;;5052312;28;20020;-73
2022/06/28 02:31:24;;;;;;;14.25;8.98;;;;;;;;;;5052261;28;20059;-73
2022/06/28 02:33:51;;;;;;;17.55;9.75;;;;;;;;;;5050702;28;20053;-73
2022/06/28 02:41:46;;;;;;;19.77;10.65;;;;;;;;;;5052093;28;20085;-72
2022/06/28 02:44:12;;;;;;;17.92;10.00;;;;;;;;;;5051560;28;20029;-73
2022/06/28 02:46:38;;;;;;;17.67;10.85;;;;;;;;;;5051845;28;20082;-73
2022/06/28 02:49:04;;;;;;;14.30;9.93;;;;;;;;;;5051392;28;20463;-73
2022/06/28 02:51:30;;;;;;;17.98;10.60;;;;;;;;;;5051594;28;20032;-74
2022/06/28 02:53:56;;;;;;;20.65;11.27;;;;;;;;;;5051555;28;20060;-74
2022/06/28 02:56:23;;;;;;;17.58;10.70;;;;;;;;;;5051348;28;20021;-74
2022/06/28 02:58:50;;;;;;;20.13;10.68;;;;;;;;;;5051739;28;20053;-74
2022/06/28 03:01:16;;;;;;;22.95;12.48;;;;;;;;;;5051612;28;20040;-74
2022/06/28 03:03:42;;;;;;;22.50;11.02;;;;;;;;;;5051564;28;20021;-74
2022/06/28 03:06:08;;;;;;;20.33;11.32;;;;;;;;;;5051402;28;20037;-74
2022/06/28 03:08:34;;;;;;;19.83;10.82;;;;;;;;;;5051552;28;20037;-74
2022/06/28 03:11:00;;;;;;;16.40;10.50;;;;;;;;;;5051531;28;20033;-74
2022/06/28 03:13:26;;;;;;;16.95;10.88;;;;;;;;;;5051059;28;20032;-74
2022/06/28 03:15:52;;;;;;;19.58;10.82;;;;;;;;;;5031512;28;20033;-74
2022/06/28 03:18:18;;;;;;;19.17;10.98;;;;;;;;;;5031417;28;20123;-74
2022/06/28 03:20:45;;;;;;;16.73;10.73;;;;;;;;;;5031372;28;20028;-74
2022/06/28 03:23:11;;;;;;;20.52;10.05;;;;;;;;;;5031474;28;20380;-74
2022/06/28 03:25:37;;;;;;;16.90;10.90;;;;;;;;;;5031439;28;20025;-74
2022/06/28 03:28:04;;;;;;;20.80;10.45;;;;;;;;;;5031291;28;20026;-73
2022/06/28 03:30:30;;;;;;;16.98;10.63;;;;;;;;;;5031321;28;20083;-74
2022/06/28 03:32:56;;;;;;;17.63;10.20;;;;;;;;;;5031267;28;20037;-74
2022/06/28 03:35:23;;;;;;;16.45;11.13;;;;;;;;;;5033699;28;20123;-74
2022/06/28 03:37:49;;;;;;;16.27;10.68;;;;;;;;;;5034995;28;20030;-74
2022/06/28 03:40:15;;;;;;;24.77;12.50;;;;;;;;;;5034992;28;20075;-73
2022/06/28 03:42:41;;;;;;;26.38;12.68;;;;;;;;;;5034906;28;20029;-73
2022/06/28 03:45:07;;;;;;;20.13;11.65;;;;;;;;;;5042456;28;20021;-74
2022/06/28 03:47:33;;;;;;;22.10;11.05;;;;;;;;;;5054756;28;20459;-73
2022/06/28 03:49:59;;;;;;;18.73;11.23;;;;;;;;;;5054356;28;20033;-74
2022/06/28 03:52:31;;;;;;;19.55;11.05;;;;;;;;;;5054654;28;20044;-74
2022/06/28 03:54:58;;;;;;;17.58;11.05;;;;;;;;;;5054702;28;20033;-74
2022/06/28 03:57:27;;;;;;;20.42;11.27;;;;;;;;;;5034349;28;20068;-74
2022/06/28 03:59:56;;;;;;;20.38;11.18;;;;;;;;;;5034633;28;20388;-74
2022/06/28 04:02:22;;;;;;;20.80;10.63;;;;;;;;;;5034560;28;20020;-74
2022/06/28 04:04:48;;;;;;;31.65;11.90;;;;;;;;;;5049373;28;20017;-74
2022/06/28 04:07:14;;;;;;;16.55;10.70;;;;;;;;;;5054274;28;20438;-73
2022/06/28 04:09:40;;;;;;;18.25;10.80;;;;;;;;;;5054389;28;20486;-73
2022/06/28 04:12:06;;;;;;;20.00;11.00;;;;;;;;;;5054330;28;20473;-73
2022/06/28 04:14:33;;;;;;;19.77;12.00;;;;;;;;;;5054132;28;20143;-74
2022/06/28 04:16:59;;;;;;;16.17;10.18;;;;;;;;;;5054114;28;20029;-74
2022/06/28 04:19:25;;;;;;;17.40;9.93;;;;;;;;;;5053908;28;20033;-74
2022/06/28 04:21:51;;;;;;;22.15;10.50;;;;;;;;;;5054155;28;20024;-74
2022/06/28 04:24:17;;;;;;;19.42;10.32;;;;;;;;;;5054015;28;20021;-74
2022/06/28 04:26:43;;;;;;;17.35;10.70;;;;;;;;;;5053982;28;20037;-74
2022/06/28 04:29:09;;;;;;;15.85;10.07;;;;;;;;;;5053904;28;20033;-74
2022/06/28 04:31:35;;;;;;;20.02;11.20;;;;;;;;;;5053847;28;20039;-74
2022/06/28 04:34:02;;;;;;;17.08;11.07;;;;;;;;;;5053788;28;20029;-74
2022/06/28 04:36:28;;;;;;;19.17;11.20;;;;;;;;;;5053810;28;20020;-74
2022/06/28 04:38:54;;;;;;;23.88;12.63;;;;;;;;;;5053706;28;20079;-74
2022/06/28 04:41:24;;;;;;;23.20;12.15;;;;;;;;;;5053853;28;20099;-74
2022/06/28 04:43:51;;;;;;;23.40;13.07;;;;;;;;;;5053726;28;20052;-74
2022/06/28 04:46:17;;;;;;;22.75;12.48;;;;;;;;;;5053304;28;20119;-74
2022/06/28 04:48:43;;;;;;;18.92;10.63;;;;;;;;;;5053779;28;20063;-74
2022/06/28 04:51:12;;;;;;;22.50;12.35;;;;;;;;;;5053571;28;20020;-74
2022/06/28 04:53:41;;;;;;;21.27;11.93;;;;;;;;;;5053543;28;20047;-74
2022/06/28 04:56:07;;;;;;;19.83;12.27;;;;;;;;;;5053312;28;20033;-74
2022/06/28 04:58:34;;;;;;;18.83;11.40;;;;;;;;;;5052986;28;20045;-74
2022/06/28 05:01:00;;;;;;;20.83;11.88;;;;;;;;;;5053082;28;20033;-74
2022/06/28 05:03:26;;;;;;;21.65;11.43;;;;;;;;;;5052977;28;20419;-73
2022/06/28 05:05:53;;;;;;;20.35;10.60;;;;;;;;;;5052829;28;20040;-74
2022/06/28 05:08:19;;;;;;;16.50;9.52;;;;;;;;;;5050077;28;20029;-74
2022/06/28 05:10:45;;;;;;;22.05;8.88;;;;;;;;;;5052907;28;20025;-74
2022/06/28 05:13:11;;;;;;;13.45;8.65;;;;;;;;;;5052850;28;20020;-73
2022/06/28 05:15:37;;;;;;;15.43;8.25;;;;;;;;;;5052374;28;20027;-74
2022/06/28 05:18:03;;;;;;;18.52;7.68;;;;;;;;;;5052669;28;20032;-73
2022/06/28 05:20:29;;;;;;;17.85;7.50;;;;;;;;;;5052637;28;20490;-74
2022/06/28 05:22:55;;;;;;;18.00;7.85;;;;;;;;;;5052455;28;20729;-74
2022/06/28 05:25:21;;;;;;;13.70;6.72;;;;;;;;;;5052549;28;20515;-72
2022/06/28 05:27:47;;;;;;;11.55;6.32;;;;;;;;;;5052392;28;20017;-74
2022/06/28 05:30:13;;;;;;;14.82;6.78;;;;;;;;;;5052429;28;20032;-74
2022/06/28 05:32:39;;;;;;;14.95;5.55;;;;;;;;;;5052254;28;20103;-73
2022/06/28 05:35:06;;;;;;;12.10;6.00;;;;;;;;;;5052246;28;20067;-74
2022/06/28 05:37:32;;;;;;;11.35;4.95;;;;;;;;;;5052054;28;20036;-74
2022/06/28 05:39:58;;;;;;;13.20;5.22;;;;;;;;;;5052182;28;20074;-74
2022/06/28 05:42:24;;;;;;;12.10;4.50;;;;;;;;;;5052183;28;20021;-74
2022/06/28 05:44:50;;;;;;;9.15;3.97;;;;;;;;;;5052067;28;20028;-74
2022/06/28 05:47:16;;;;;;;9.60;3.42;;;;;;;;;;5052092;28;20468;-74
2022/06/28 05:49:42;;;;;;;12.20;3.55;;;;;;;;;;5050692;28;20017;-73
2022/06/28 05:52:08;;;;;;;9.63;3.25;;;;;;;;;;5051953;28;20422;-73
2022/06/28 05:54:35;;;;;;;11.90;2.63;;;;;;;;;;5051973;28;20090;-73
2022/06/28 05:57:01;;;;;;;11.68;3.10;;;;;;;;;;5050932;28;20036;-73
2022/06/28 05:59:27;;;;;;;10.40;2.85;;;;;;;;;;5052147;28;20021;-73
2022/06/28 06:01:55;;;;;;;11.00;3.08;;;;;;;;;;5049929;28;20021;-73
2022/06/28 06:04:21;;;;;;;9.85;2.75;;;;;;;;;;5050284;28;20033;-73
2022/06/28 06:06:47;;;;;;;9.82;2.50;;;;;;;;;;5052080;28;20542;-73
2022/06/28 06:09:14;;;;;;;9.70;2.40;;;;;;;;;;5052134;28;20021;-73
2022/06/28 06:11:40;;;;;;;10.05;2.90;;;;;;;;;;5050783;28;20030;-73
2022/06/28 06:14:06;;;;;;;11.07;2.80;;;;;;;;;;5051619;28;20025;-73
2022/06/28 06:16:32;;;;;;;19.50;4.03;;;;;;;;;;5051935;28;20025;-74
2022/06/28 06:18:58;;;;;;;14.13;3.22;;;;;;;;;;5051812;28;20029;-73
2022/06/28 06:21:24;;;;;;;11.82;2.42;;;;;;;;;;5051885;28;20025;-74
2022/06/28 06:23:50;;;;;;;13.40;3.75;;;;;;;;;;5051591;28;20026;-73
2022/06/28 06:26:16;;;;;;;9.50;2.20;;;;;;;;;;5051822;28;20071;-74
2022/06/28 06:28:42;;;;;;;12.43;3.80;;;;;;;;;;5051717;28;20391;-73
2022/06/28 06:31:09;;;;;;;12.55;2.50;;;;;;;;;;5050363;28;20040;-74
2022/06/28 06:33:35;;;;;;;9.75;2.40;;;;;;;;;;5051577;28;20029;-74
2022/06/28 06:36:02;;;;;;;10.30;2.42;;;;;;;;;;5051589;28;20098;-74
2022/06/28 06:38:28;;;;;;;10.45;2.15;;;;;;;;;;5051547;28;20486;-74
2022/06/28 06:40:55;;;;;;;9.40;2.20;;;;;;;;;;5051613;28;20044;-74
2022/06/28 06:43:22;;;;;;;8.07;2.28;;;;;;;;;;5051536;28;20121;-74
2022/06/28 06:45:48;;;;;;;10.70;2.38;;;;;;;;;;5050063;28;20503;-74
2022/06/28 06:48:14;;;;;;;12.77;2.80;;;;;;;;;;5051565;28;20025;-74
2022/06/28 06:50:41;;;;;;;14.18;2.30;;;;;;;;;;5051486;28;20043;-74
2022/06/28 06:53:09;;;;;;;18.45;2.45;;;;;;;;;;5050824;28;20017;-74
2022/06/28 06:55:35;;;;;;;12.45;2.45;;;;;;;;;;5050432;28;20013;-74
2022/06/28 06:58:01;;;;;;;13.20;2.40;;;;;;;;;;5049371;28;20037;-74
2022/06/28 07:00:27;;;;;;;13.30;2.58;;;;;;;;;;5050205;28;20028;-74
2022/06/28 07:02:53;;;;;;;13.32;2.60;;;;;;;;;;5050593;28;20016;-74
2022/06/28 07:05:19;;;;;;;11.85;2.20;;;;;;;;;;5050589;28;20053;-74
2022/06/28 07:07:48;;;;;;;9.98;2.50;;;;;;;;;;5050546;28;20094;-74
2022/06/28 07:10:14;;;;;;;18.27;2.65;;;;;;;;;;5052897;28;20037;-74
2022/06/28 07:12:41;;;;;;;11.10;2.47;;;;;;;;;;5054589;28;20448;-74
2022/06/28 07:15:07;;;;;;;13.43;2.78;;;;;;;;;;5054340;28;20025;-74
2022/06/28 07:17:34;;;;;;;14.38;2.45;;;;;;;;;;5054389;28;20478;-74
2022/06/28 07:20:00;;;;;;;15.73;2.50;;;;;;;;;;5054419;28;20029;-74
2022/06/28 07:22:26;;;;;;;13.98;2.63;;;;;;;;;;5054173;28;20033;-74
2022/06/28 07:24:53;;;;;;;13.75;2.60;;;;;;;;;;5054536;28;20035;-74
2022/06/28 07:27:19;;;;;;;15.40;2.25;;;;;;;;;;5054280;28;20021;-74
2022/06/28 07:29:46;;;;;;;14.82;2.70;;;;;;;;;;5054292;28;20028;-74
2022/06/28 07:32:12;;;;;;;10.18;2.38;;;;;;;;;;5054359;28;20083;-74
2022/06/28 07:34:38;;;;;;;15.25;2.45;;;;;;;;;;5054386;28;20025;-74
2022/06/28 07:37:04;;;;;;;13.68;2.50;;;;;;;;;;5054281;28;20025;-74
2022/06/28 07:39:30;;;;;;;13.25;2.13;;;;;;;;;;5054210;28;20040;-72
2022/06/28 07:41:56;;;;;;;15.90;2.13;;;;;;;;;;5054138;28;20139;-74
2022/06/28 07:44:22;;;;;;;10.68;2.10;;;;;;;;;;5054367;28;20021;-74
2022/06/28 07:46:48;;;;;;;16.27;2.38;;;;;;;;;;5054547;28;20021;-76
2022/06/28 07:49:14;;;;;;;9.63;2.33;;;;;;;;;;5054183;28;20067;-74
2022/06/28 07:54:25;;;;;;;9.73;1.67;;;;;;;;;;5054410;28;20063;-75
2022/06/28 07:56:51;;;;;;;9.98;1.70;;;;;;;;;;5054167;28;20103;-75
2022/06/28 07:59:17;;;;;;;12.70;2.15;;;;;;;;;;5054091;28;20448;-75
2022/06/28 08:01:43;;;;;;;13.82;1.92;;;;;;;;;;5054234;28;20052;-75
2022/06/28 08:04:11;;;;;;;14.95;1.67;;;;;;;;;;5054499;28;20033;-75
2022/06/28 08:06:37;;;;;;;13.57;2.65;;;;;;;;;;5054320;28;20153;-77
2022/06/28 08:09:04;;;;;;;8.45;1.60;;;;;;;;;;5054158;28;20029;-74
2022/06/28 08:11:32;;;;;;;10.93;1.40;;;;;;;;;;5054085;28;20104;-76
2022/06/28 08:13:58;;;;;;;12.55;1.67;;;;;;;;;;5053840;28;20025;-76
2022/06/28 08:16:24;;;;;;;7.97;1.63;;;;;;;;;;5053939;28;20086;-76
2022/06/28 08:18:50;;;;;;;7.60;1.48;;;;;;;;;;5053904;28;20025;-75
2022/06/28 08:21:16;;;;;;;9.25;1.77;;;;;;;;;;5052822;28;20029;-75
2022/06/28 08:23:42;;;;;;;7.95;1.70;;;;;;;;;;5052204;28;20075;-75
2022/06/28 08:26:09;;;;;;;11.57;2.10;;;;;;;;;;5053918;28;20025;-74
2022/06/28 08:28:35;;;;;;;15.07;1.55;;;;;;;;;;5053226;28;20158;-75
2022/06/28 08:31:01;;;;;;;8.20;1.60;;;;;;;;;;5052486;28;20422;-75
2022/06/28 08:33:27;;;;;;;5.10;1.33;;;;;;;;;;5053313;28;20029;-75
2022/06/28 08:35:53;;;;;;;17.00;1.83;;;;;;;;;;5052771;28;20468;-75
2022/06/28 08:38:19;;;;;;;13.13;1.35;;;;;;;;;;5052456;28;20040;-75
2022/06/28 08:40:46;;;;;;;6.70;1.75;;;;;;;;;;5049923;28;20032;-75
2022/06/28 08:43:12;;;;;;;5.03;1.30;;;;;;;;;;5052517;28;20043;-74
2022/06/28 08:45:39;;;;;;;10.05;1.70;;;;;;;;;;5051168;28;20036;-75
2022/06/28 08:48:14;;;;;;;10.57;1.73;;;;;;;;;;5052405;28;20059;-75
2022/06/28 08:50:41;;;;;;;8.82;1.80;;;;;;;;;;5052203;28;20025;-75
2022/06/28 08:53:09;;;;;;;8.77;1.55;;;;;;;;;;5052839;28;20105;-76
2022/06/28 08:55:35;;;;;;;6.40;1.20;;;;;;;;;;5053028;28;20028;-76
2022/06/28 08:58:02;;;;;;;4.50;1.30;;;;;;;;;;5053067;28;20045;-76
2022/06/28 09:00:29;;;;;;;7.57;1.20;;;;;;;;;;5053066;28;20024;-77
2022/06/28 09:02:55;;;;;;;11.23;1.55;;;;;;;;;;5053067;28;20464;-75
2022/06/28 09:05:22;;;;;;;12.23;1.48;;;;;;;;;;5051667;28;20033;-75
2022/06/28 09:07:50;;;;;;;8.63;1.20;;;;;;;;;;5053018;28;20025;-77
2022/06/28 09:10:16;;;;;;;9.65;1.63;;;;;;;;;;5051409;28;20383;-77
2022/06/28 09:12:55;;;;;;;7.30;1.60;;;;;;;;;;5052957;28;20041;-77
2022/06/28 09:15:22;;;;;;;14.20;1.73;;;;;;;;;;5048726;28;20369;-76
2022/06/28 09:17:49;;;;;;;11.90;1.98;;;;;;;;;;5051323;28;20476;-78
2022/06/28 09:20:16;;;;;;;9.02;1.40;;;;;;;;;;5052617;28;20051;-77
2022/06/28 09:22:43;;;;;;;6.00;1.35;;;;;;;;;;5052708;28;20104;-77
2022/06/28 09:25:12;;;;;;;7.18;1.20;;;;;;;;;;5052818;28;20037;-77
2022/06/28 09:27:41;;;;;;;7.57;1.17;;;;;;;;;;5052671;28;20042;-76
2022/06/28 09:30:08;;;;;;;9.63;1.40;;;;;;;;;;5052542;28;20020;-76
2022/06/28 09:32:35;;;;;;;7.93;1.92;;;;;;;;;;5051731;28;20033;-76
2022/06/28 09:35:03;;;;;;;4.70;1.48;;;;;;;;;;5052396;28;20071;-77
2022/06/28 09:37:50;;;;;;;8.75;1.10;;;;;;;;;;5050941;28;20369;-77
2022/06/28 09:40:19;;;;;;;4.32;0.90;;;;;;;;;;5052246;28;20056;-76
2022/06/28 09:43:04;;;;;;;8.27;0.90;;;;;;;;;;5052534;28;20493;-76
2022/06/28 09:45:31;;;;;;;11.05;1.30;;;;;;;;;;5041080;28;20063;-76
2022/06/28 09:47:57;;;;;;;6.45;1.20;;;;;;;;;;5032251;28;20376;-76
2022/06/28 09:50:23;;;;;;;6.63;0.88;;;;;;;;;;5032255;28;20026;-77
2022/06/28 09:52:50;;;;;;;6.97;1.30;;;;;;;;;;5032404;28;20025;-77
2022/06/28 09:55:16;;;;;;;6.35;1.00;;;;;;;;;;5040134;28;20021;-76
2022/06/28 09:57:44;;;;;;;11.52;1.23;;;;;;;;;;5051307;28;20044;-76
2022/06/28 10:00:11;;;;;;;4.82;0.82;;;;;;;;;;5050203;28;20028;-77
2022/06/28 10:02:37;;;;;;;8.13;0.90;;;;;;;;;;5051471;28;20028;-76
2022/06/28 10:05:03;;;;;;;4.47;1.77;;;;;;;;;;5052015;28;20028;-76
2022/06/28 10:07:31;;;;;;;7.13;1.02;;;;;;;;;;5051369;28;20086;-76
2022/06/28 10:09:58;;;;;;;6.15;0.90;;;;;;;;;;5051611;28;20017;-76
2022/06/28 10:15:09;;;;;;;11.20;1.30;;;;;;;;;;5051289;28;20414;-76
2022/06/28 10:17:56;;;;;;;8.57;0.88;;;;;;;;;;5051377;28;20056;-77
2022/06/28 10:20:24;;;;;;;7.20;1.15;;;;;;;;;;5051476;28;20499;-76
2022/06/28 10:22:50;;;;;;;3.17;0.70;;;;;;;;;;5051603;28;20049;-78
2022/06/28 10:25:22;;;;;;;3.50;0.80;;;;;;;;;;5052181;28;20021;-79
2022/06/28 10:27:49;;;;;;;4.88;0.90;;;;;;;;;;5052043;28;20789;-77
2022/06/28 10:30:18;;;;;;;5.38;1.00;;;;;;;;;;5051303;28;20078;-77
2022/06/28 10:32:44;;;;;;;5.85;0.85;;;;;;;;;;5050611;28;20029;-76
2022/06/28 10:35:10;;;;;;;4.25;0.90;;;;;;;;;;5050301;28;20441;-76
2022/06/28 10:37:56;;;;;;;8.30;1.58;;;;;;;;;;5050251;28;20075;-76
2022/06/28 10:40:22;;;;;;;7.20;1.23;;;;;;;;;;5050138;28;20028;-76
2022/06/28 10:42:51;;;;;;;3.92;0.73;;;;;;;;;;5050001;28;20021;-77
2022/06/28 10:45:17;;;;;;;6.95;0.93;;;;;;;;;;5050144;28;20017;-76
2022/06/28 10:48:03;;;;;;;3.28;0.70;;;;;;;;;;5050707;28;20025;-76
2022/06/28 10:50:29;;;;;;;3.60;0.82;;;;;;;;;;5050592;28;20427;-77
2022/06/28 10:53:02;;;;;;;9.27;0.90;;;;;;;;;;5050643;28;20082;-77
2022/06/28 10:55:28;;;;;;;6.95;2.08;;;;;;;;;;5050682;28;20042;-77
2022/06/28 10:58:07;;;;;;;5.55;1.08;;;;;;;;;;5050395;28;20049;-77
2022/06/28 11:00:36;;;;;;;1.92;0.50;;;;;;;;;;5049004;28;20115;-76
2022/06/28 11:03:04;;;;;;;3.35;0.90;;;;;;;;;;5050478;28;20017;-76
2022/06/28 11:05:48;;;;;;;3.40;0.85;;;;;;;;;;5050448;28;20108;-76
2022/06/28 11:08:33;;;;;;;4.45;1.10;;;;;;;;;;5050853;28;20042;-79
2022/06/28 11:11:00;;;;;;;5.57;0.85;;;;;;;;;;5050292;28;20052;-75
2022/06/28 11:13:26;;;;;;;7.85;1.05;;;;;;;;;;5051326;28;20039;-77
2022/06/28 11:15:52;;;;;;;2.20;0.57;;;;;;;;;;5051397;28;20052;-77
2022/06/28 11:18:20;;;;;;;3.53;0.85;;;;;;;;;;5051253;28;20773;-77
2022/06/28 11:20:46;;;;;;;4.82;0.80;;;;;;;;;;5051114;28;20025;-77
2022/06/28 11:23:25;;;;;;;7.45;1.00;;;;;;;;;;5051189;28;20021;-77
2022/06/28 11:28:54;;;;;;;9.32;0.85;;;;;;;;;;5051072;28;20040;-78
2022/06/28 11:31:21;;;;;;;4.90;0.60;;;;;;;;;;5050847;28;20021;-79
2022/06/28 11:33:48;;;;;;;3.60;1.13;;;;;;;;;;5050770;28;20025;-78
2022/06/28 11:36:22;;;;;;;4.60;0.82;;;;;;;;;;5050458;28;20104;-79
2022/06/28 11:38:48;;;;;;;6.43;0.63;;;;;;;;;;5050515;28;20024;-79
2022/06/28 11:41:27;;;;;;;1.60;0.50;;;;;;;;;;5050720;28;20166;-79
2022/06/28 11:43:58;;;;;;;3.13;0.85;;;;;;;;;;5050962;28;20072;-79
2022/06/28 11:46:24;;;;;;;3.72;0.63;;;;;;;;;;5050655;28;20025;-79
2022/06/28 11:48:51;;;;;;;5.55;0.98;;;;;;;;;;5050803;28;20052;-79
2022/06/28 11:51:25;;;;;;;3.33;0.70;;;;;;;;;;5050761;28;20379;-79
2022/06/28 11:53:51;;;;;;;3.33;0.70;;;;;;;;;;5051046;28;20021;-79
2022/06/28 11:56:17;;;;;;;3.53;0.80;;;;;;;;;;5052805;28;20037;-79
2022/06/28 11:58:43;;;;;;;3.38;0.70;;;;;;;;;;5054196;28;20036;-79
2022/06/28 12:01:11;;;;;;;3.63;0.60;;;;;;;;;;5054205;28;20028;-79
2022/06/28 12:03:43;;;;;;;2.97;0.60;;;;;;;;;;5054350;28;20045;-79
2022/06/28 12:06:09;;;;;;;;;;;;;;;;;;5054593;28;20029;-78
2022/06/28 12:08:52;;;;;;;3.65;0.85;;;;;;;;;;5054711;28;20054;-79
2022/06/28 12:11:25;;;;;;;2.90;0.75;;;;;;;;;;5054737;28;20090;-79
2022/06/28 12:14:00;;;;;;;6.75;0.68;;;;;;;;;;5051068;28;20075;-79
2022/06/28 12:16:30;;;;;;;3.95;0.80;;;;;;;;;;5034436;28;20021;-78
2022/06/28 12:18:57;;;;;;;4.57;0.90;;;;;;;;;;5034243;28;20033;-80
2022/06/28 12:21:23;;;;;;;6.80;0.90;;;;;;;;;;5034619;28;20029;-80
2022/06/28 12:23:50;;;;;;;7.57;0.90;;;;;;;;;;5034578;28;20021;-77
2022/06/28 12:26:17;;;;;;;3.20;0.82;;;;;;;;;;5053345;28;20033;-78
2022/06/28 12:28:43;;;;;;;3.17;0.93;;;;;;;;;;5053235;28;20032;-78
2022/06/28 12:31:09;;;;;;;2.38;0.93;;;;;;;;;;5052945;28;20017;-77
2022/06/28 12:33:35;;;;;;;4.32;1.20;;;;;;;;;;5051707;28;20017;-77
2022/06/28 12:36:01;;;;;;;3.47;0.75;;;;;;;;;;5051492;28;20498;-79
2022/06/28 12:38:27;;;;;;;4.95;0.90;;;;;;;;;;5053511;28;20043;-79
2022/06/28 12:40:53;;;;;;;7.55;1.40;;;;;;;;;;5053581;28;20017;-79
2022/06/28 12:43:19;;;;;;;6.10;0.90;;;;;;;;;;5053464;28;20490;-79
2022/06/28 12:45:45;;;;;;;4.30;0.80;;;;;;;;;;5040542;28;20444;-79
2022/06/28 12:48:11;;;;;;;5.22;1.00;;;;;;;;;;5033517;28;20045;-77
2022/06/28 12:50:37;;;;;;;2.75;0.73;;;;;;;;;;5033107;28;20021;-78
2022/06/28 12:53:03;;;;;;;7.68;0.77;;;;;;;;;;5038521;28;20444;-78
2022/06/28 12:55:29;;;;;;;9.85;1.33;;;;;;;;;;5051754;28;20040;-78
2022/06/28 12:57:55;;;;;;;9.93;1.10;;;;;;;;;;5053511;28;20132;-78
2022/06/28 13:00:21;;;;;;;5.30;1.00;;;;;;;;;;5063401;28;20040;-78
2022/06/28 13:02:47;;;;;;;4.70;0.80;;;;;;;;;;5063190;28;20021;-78
2022/06/28 13:05:13;;;;;;;2.28;0.73;;;;;;;;;;5056253;28;20060;-78
2022/06/28 13:07:42;;;;;;;3.67;0.90;;;;;;;;;;5052838;28;20037;-78
2022/06/28 13:10:09;;;;;;;3.75;0.85;;;;;;;;;;5052790;28;20017;-78
2022/06/28 13:12:35;;;;;;;5.63;0.90;;;;;;;;;;5053296;28;20021;-77
2022/06/28 13:15:02;;;;;;;2.00;0.95;;;;;;;;;;5062719;28;20029;-77
2022/06/28 13:17:28;;;;;;;5.53;0.98;;;;;;;;;;5061057;28;20403;-77
2022/06/28 13:19:54;;;;;;;5.75;0.80;;;;;;;;;;5062492;28;20459;-77
2022/06/28 13:22:20;;;;;;;4.65;0.80;;;;;;;;;;5061029;28;20023;-76
2022/06/28 13:24:46;;;;;;;6.05;0.80;;;;;;;;;;5061205;28;20120;-76
2022/06/28 13:27:12;;;;;;;3.22;0.70;;;;;;;;;;5062294;28;20060;-77
2022/06/28 13:29:38;;;;;;;6.53;1.00;;;;;;;;;;5059737;28;20477;-77
2022/06/28 13:32:04;;;;;;;4.80;1.30;;;;;;;;;;5061550;28;20079;-79
2022/06/28 13:34:30;;;;;;;2.92;0.90;;;;;;;;;;5069428;28;20509;-79
2022/06/28 13:36:57;;;;;;;5.40;0.73;;;;;;;;;;5072371;28;20067;-79
2022/06/28 13:39:23;;;;;;;2.92;0.60;;;;;;;;;;5072334;28;20058;-75
2022/06/28 13:41:49;;;;;;;6.25;0.95;;;;;;;;;;5057966;28;20032;-74
2022/06/28 13:44:17;;;;;;;2.13;0.80;;;;;;;;;;5047090;28;20025;-80
2022/06/28 13:46:45;;;;;;;3.15;0.88;;;;;;;;;;5052595;28;20760;-80
2022/06/28 13:49:11;;;;;;;4.25;1.05;;;;;;;;;;5054160;28;20092;-79
2022/06/28 13:51:37;;;;;;;4.35;1.05;;;;;;;;;;5047866;28;20025;-79
2022/06/28 13:54:03;;;;;;;2.78;0.98;;;;;;;;;;5060036;28;20166;-79
2022/06/28 13:56:30;;;;;;;5.50;1.00;;;;;;;;;;5059192;28;20416;-79
2022/06/28 13:58:56;;;;;;;2.17;0.70;;;;;;;;;;5054176;28;20031;-80
2022/06/28 14:01:22;;;;;;;3.60;0.80;;;;;;;;;;5065429;28;20028;-80
2022/06/28 14:03:48;;;;;;;2.25;1.00;;;;;;;;;;5055278;28;20127;-81
2022/06/28 14:06:14;;;;;;;2.95;0.80;;;;;;;;;;5051463;28;20116;-79
2022/06/28 14:08:40;;;;;;;5.30;0.80;;;;;;;;;;5053580;28;20476;-80
2022/06/28 14:11:06;;;;;;;2.80;0.80;;;;;;;;;;5056203;28;20029;-80
2022/06/28 14:13:33;;;;;;;1.73;0.70;;;;;;;;;;5063258;28;20082;-80
2022/06/28 14:15:59;;;;;;;5.47;1.00;;;;;;;;;;5049556;28;20025;-80
2022/06/28 14:18:25;;;;;;;2.05;0.70;;;;;;;;;;5053587;28;20037;-80
2022/06/28 14:20:51;;;;;;;3.35;0.65;;;;;;;;;;5054659;28;20024;-80
2022/06/28 14:23:18;;;;;;;3.97;1.17;;;;;;;;;;5058709;28;20471;-81
2022/06/28 14:25:44;;;;;;;5.00;0.70;;;;;;;;;;5050023;28;20055;-80
2022/06/28 14:28:11;;;;;;;3.00;0.90;;;;;;;;;;5057132;28;20059;-80
2022/06/28 14:30:37;;;;;;;3.90;0.80;;;;;;;;;;5053501;28;20017;-80
2022/06/28 14:33:03;;;;;;;3.55;0.90;;;;;;;;;;5050034;28;20418;-80
2022/06/28 14:35:30;;;;;;;2.83;0.90;;;;;;;;;;5055620;28;20023;-80
2022/06/28 14:37:56;;;;;;;6.32;0.88;;;;;;;;;;5051990;28;20032;-79
2022/06/28 14:40:22;;;;;;;2.25;0.60;;;;;;;;;;5058545;28;20029;-79
2022/06/28 14:42:48;;;;;;;4.60;0.70;;;;;;;;;;5052136;28;20092;-78
2022/06/28 14:45:15;;;;;;;3.35;0.60;;;;;;;;;;5048785;28;20132;-76
2022/06/28 14:47:41;;;;;;;4.57;1.05;;;;;;;;;;5056067;28;20060;-77
2022/06/28 14:50:08;;;;;;;1.95;0.68;;;;;;;;;;5051745;28;20048;-78